createdAt,value
2018-06-22T00:00:51.857Z,1015.81
2018-06-22T00:01:51.868Z,1015.89
2018-06-22T00:02:51.835Z,1015.86
2018-06-22T00:03:51.772Z,1015.90
2018-06-22T00:04:51.729Z,1015.83
2018-06-22T00:05:51.764Z,1015.77
2018-06-22T00:06:51.670Z,1015.79
2018-06-22T00:07:51.606Z,1015.87
2018-06-22T00:08:51.607Z,1015.84
2018-06-22T00:09:51.536Z,1015.87
2018-06-22T00:10:51.548Z,1015.82
2018-06-22T00:11:51.477Z,1015.86
2018-06-22T00:12:51.468Z,1015.92
2018-06-22T00:13:51.441Z,1015.84
2018-06-22T00:14:51.375Z,1015.88
2018-06-22T00:15:51.410Z,1015.87
2018-06-22T00:16:51.284Z,1015.79
2018-06-22T00:17:51.267Z,1015.81
2018-06-22T00:18:51.242Z,1015.86
2018-06-22T00:19:51.214Z,1015.88
2018-06-22T00:20:51.152Z,1015.81
2018-06-22T00:21:51.143Z,1015.78
2018-06-22T00:22:51.081Z,1015.80
2018-06-22T00:23:51.042Z,1015.83
2018-06-22T00:24:51.029Z,1015.79
2018-06-22T00:25:50.974Z,1015.80
2018-06-22T00:26:50.962Z,1015.73
2018-06-22T00:27:50.925Z,1015.82
2018-06-22T00:28:50.862Z,1015.82
2018-06-22T00:29:50.826Z,1015.76
2018-06-22T00:30:50.788Z,1015.72
2018-06-22T00:31:50.757Z,1015.79
2018-06-22T00:32:50.729Z,1015.78
2018-06-22T00:33:50.693Z,1015.81
2018-06-22T00:34:50.648Z,1015.74
2018-06-22T00:35:50.609Z,1015.82
2018-06-22T00:36:50.609Z,1015.79
2018-06-22T00:37:50.539Z,1015.71
2018-06-22T00:38:50.547Z,1015.77
2018-06-22T00:39:50.505Z,1015.83
2018-06-22T00:40:50.441Z,1015.82
2018-06-22T00:41:50.402Z,1015.84
2018-06-22T00:42:50.381Z,1015.75
2018-06-22T00:43:50.340Z,1015.76
2018-06-22T00:44:50.287Z,1015.67
2018-06-22T00:45:50.284Z,1015.76
2018-06-22T00:46:50.235Z,1015.68
2018-06-22T00:47:50.192Z,1015.66
2018-06-22T00:48:50.146Z,1015.61
2018-06-22T00:49:50.135Z,1015.65
2018-06-22T00:50:50.090Z,1015.60
2018-06-22T00:51:50.044Z,1015.66
2018-06-22T00:52:50.028Z,1015.57
2018-06-22T00:53:49.998Z,1015.59
2018-06-22T00:54:49.953Z,1015.57
2018-06-22T00:55:49.952Z,1015.61
2018-06-22T00:56:49.866Z,1015.66
2018-06-22T00:57:49.832Z,1015.56
2018-06-22T00:58:49.797Z,1015.61
2018-06-22T00:59:49.760Z,1015.64
2018-06-22T01:00:49.727Z,1015.42
2018-06-22T01:01:49.705Z,1015.48
2018-06-22T01:02:49.659Z,1015.61
2018-06-22T01:03:49.626Z,1015.42
2018-06-22T01:04:49.585Z,1015.52
2018-06-22T01:05:49.550Z,1015.55
2018-06-22T01:06:49.522Z,1015.53
2018-06-22T01:07:49.476Z,1015.46
2018-06-22T01:08:49.439Z,1015.48
2018-06-22T01:09:49.407Z,1015.30
2018-06-22T01:10:49.375Z,1015.47
2018-06-22T01:11:49.362Z,1015.46
2018-06-22T01:12:49.316Z,1015.46
2018-06-22T01:13:49.266Z,1015.51
2018-06-22T01:14:49.231Z,1015.40
2018-06-22T01:15:49.196Z,1015.50
2018-06-22T01:16:49.160Z,1015.49
2018-06-22T01:17:49.125Z,1015.45
2018-06-22T01:18:49.091Z,1015.45
2018-06-22T01:19:49.052Z,1015.51
2018-06-22T01:20:49.020Z,1015.50
2018-06-22T01:21:48.983Z,1015.49
2018-06-22T01:22:48.949Z,1015.54
2018-06-22T01:23:48.923Z,1015.50
2018-06-22T01:24:48.912Z,1015.44
2018-06-22T01:25:48.842Z,1015.44
2018-06-22T01:26:48.805Z,1015.39
2018-06-22T01:27:48.772Z,1015.48
2018-06-22T01:28:48.736Z,1015.49
2018-06-22T01:29:48.702Z,1015.48
2018-06-22T01:30:48.669Z,1015.47
2018-06-22T01:31:48.652Z,1015.51
2018-06-22T01:32:48.594Z,1015.44
2018-06-22T01:33:48.557Z,1015.43
2018-06-22T01:34:48.522Z,1015.47
2018-06-22T01:35:48.507Z,1015.48
2018-06-22T01:36:48.453Z,1015.42
2018-06-22T01:37:48.416Z,1015.42
2018-06-22T01:38:48.381Z,1015.54
2018-06-22T01:39:48.350Z,1015.53
2018-06-22T01:40:48.328Z,1015.47
2018-06-22T01:41:48.275Z,1015.52
2018-06-22T01:42:48.243Z,1015.53
2018-06-22T01:43:48.204Z,1015.51
2018-06-22T01:44:48.167Z,1015.55
2018-06-22T01:45:48.133Z,1015.45
2018-06-22T01:46:48.097Z,1015.48
2018-06-22T01:47:48.061Z,1015.48
2018-06-22T01:48:48.025Z,1015.45
2018-06-22T01:49:47.986Z,1015.52
2018-06-22T01:50:47.972Z,1015.46
2018-06-22T01:51:47.918Z,1015.47
2018-06-22T01:52:47.883Z,1015.48
2018-06-22T01:53:47.849Z,1015.54
2018-06-22T01:54:47.840Z,1015.49
2018-06-22T01:55:47.777Z,1015.37
2018-06-22T01:56:47.741Z,1015.50
2018-06-22T01:57:47.707Z,1015.54
2018-06-22T01:58:47.671Z,1015.57
2018-06-22T01:59:47.633Z,1015.53
2018-06-22T02:00:47.599Z,1015.56
2018-06-22T02:01:47.566Z,1015.41
2018-06-22T02:02:47.528Z,1015.52
2018-06-22T02:03:47.493Z,1015.51
2018-06-22T02:04:47.457Z,1015.46
2018-06-22T02:05:47.478Z,1015.57
2018-06-22T02:06:47.387Z,1015.52
2018-06-22T02:07:47.354Z,1015.49
2018-06-22T02:08:47.313Z,1015.50
2018-06-22T02:09:47.279Z,1015.58
2018-06-22T02:10:47.247Z,1015.46
2018-06-22T02:11:47.210Z,1015.51
2018-06-22T02:12:47.176Z,1015.53
2018-06-22T02:13:47.169Z,1015.53
2018-06-22T02:14:47.101Z,1015.53
2018-06-22T02:15:47.069Z,1015.47
2018-06-22T02:16:47.042Z,1015.47
2018-06-22T02:17:47.000Z,1015.50
2018-06-22T02:18:46.955Z,1015.51
2018-06-22T02:19:46.925Z,1015.53
2018-06-22T02:20:46.891Z,1015.46
2018-06-22T02:21:46.878Z,1015.41
2018-06-22T02:22:46.822Z,1015.53
2018-06-22T02:23:46.783Z,1015.48
2018-06-22T02:24:46.752Z,1015.41
2018-06-22T02:25:46.719Z,1015.43
2018-06-22T02:26:46.707Z,1015.44
2018-06-22T02:27:46.643Z,1015.38
2018-06-22T02:28:46.616Z,1015.49
2018-06-22T02:29:46.571Z,1015.45
2018-06-22T02:30:46.538Z,1015.44
2018-06-22T02:31:46.501Z,1015.35
2018-06-22T02:32:46.462Z,1015.39
2018-06-22T02:33:46.443Z,1015.31
2018-06-22T02:34:46.409Z,1015.39
2018-06-22T02:35:46.362Z,1015.30
2018-06-22T02:36:46.323Z,1015.20
2018-06-22T02:37:46.290Z,1015.38
2018-06-22T02:38:46.251Z,1015.40
2018-06-22T02:39:46.214Z,1015.33
2018-06-22T02:40:46.179Z,1015.35
2018-06-22T02:41:46.148Z,1015.39
2018-06-22T02:42:46.111Z,1015.27
2018-06-22T02:43:46.073Z,1015.32
2018-06-22T02:44:46.040Z,1015.40
2018-06-22T02:45:46.035Z,1015.38
2018-06-22T02:46:45.968Z,1015.32
2018-06-22T02:47:45.933Z,1015.41
2018-06-22T02:48:45.898Z,1015.46
2018-06-22T02:49:45.863Z,1015.31
2018-06-22T02:50:45.826Z,1015.34
2018-06-22T02:51:45.789Z,1015.38
2018-06-22T02:52:45.764Z,1015.34
2018-06-22T02:53:45.719Z,1015.39
2018-06-22T02:54:45.684Z,1015.35
2018-06-22T02:55:45.646Z,1015.43
2018-06-22T02:56:45.611Z,1015.47
2018-06-22T02:57:45.573Z,1015.41
2018-06-22T02:58:45.541Z,1015.38
2018-06-22T02:59:45.512Z,1015.49
2018-06-22T03:00:45.469Z,1015.30
2018-06-22T03:01:45.433Z,1015.49
2018-06-22T03:02:45.399Z,1015.26
2018-06-22T03:03:45.363Z,1015.31
2018-06-22T03:04:45.361Z,1015.34
2018-06-22T03:05:45.290Z,1015.32
2018-06-22T03:06:45.253Z,1015.43
2018-06-22T03:07:45.219Z,1015.36
2018-06-22T03:08:45.182Z,1015.43
2018-06-22T03:09:45.148Z,1015.42
2018-06-22T03:10:45.117Z,1015.42
2018-06-22T03:11:45.072Z,1015.45
2018-06-22T03:12:45.041Z,1015.44
2018-06-22T03:13:45.006Z,1015.48
2018-06-22T03:14:44.964Z,1015.48
2018-06-22T03:15:44.932Z,1015.47
2018-06-22T03:16:44.900Z,1015.44
2018-06-22T03:17:44.864Z,1015.47
2018-06-22T03:18:44.826Z,1015.45
2018-06-22T03:19:44.805Z,1015.44
2018-06-22T03:20:44.755Z,1015.46
2018-06-22T03:21:44.716Z,1015.50
2018-06-22T03:22:44.683Z,1015.44
2018-06-22T03:23:44.643Z,1015.43
2018-06-22T03:24:44.610Z,1015.47
2018-06-22T03:25:44.603Z,1015.38
2018-06-22T03:26:44.537Z,1015.43
2018-06-22T03:27:44.503Z,1015.34
2018-06-22T03:28:44.467Z,1015.45
2018-06-22T03:29:44.430Z,1015.44
2018-06-22T03:30:44.394Z,1015.43
2018-06-22T03:31:44.360Z,1015.39
2018-06-22T03:32:44.321Z,1015.43
2018-06-22T03:33:44.292Z,1015.46
2018-06-22T03:34:44.252Z,1015.45
2018-06-22T03:35:44.217Z,1015.41
2018-06-22T03:36:44.180Z,1015.41
2018-06-22T03:37:44.146Z,1015.51
2018-06-22T03:38:44.108Z,1015.45
2018-06-22T03:39:44.072Z,1015.49
2018-06-22T03:40:44.038Z,1015.49
2018-06-22T03:41:44.000Z,1015.42
2018-06-22T03:42:43.986Z,1015.30
2018-06-22T03:43:43.926Z,1015.46
2018-06-22T03:44:43.892Z,1015.44
2018-06-22T03:45:43.858Z,1015.44
2018-06-22T03:46:43.827Z,1015.47
2018-06-22T03:47:43.782Z,1015.48
2018-06-22T03:48:43.749Z,1015.43
2018-06-22T03:49:43.710Z,1015.26
2018-06-22T03:50:43.724Z,1015.38
2018-06-22T03:51:43.641Z,1015.40
2018-06-22T03:52:43.606Z,1015.40
2018-06-22T03:53:43.569Z,1015.41
2018-06-22T03:54:43.532Z,1015.42
2018-06-22T03:55:43.498Z,1015.38
2018-06-22T03:56:43.524Z,1015.35
2018-06-22T03:57:43.424Z,1015.34
2018-06-22T03:58:43.385Z,1015.36
2018-06-22T03:59:43.350Z,1015.28
2018-06-22T04:00:43.320Z,1015.17
2018-06-22T04:01:43.281Z,1015.37
2018-06-22T04:02:43.246Z,1015.32
2018-06-22T04:03:43.209Z,1015.36
2018-06-22T04:04:43.173Z,1015.39
2018-06-22T04:05:43.139Z,1015.35
2018-06-22T04:06:43.102Z,1015.36
2018-06-22T04:07:43.068Z,1015.35
2018-06-22T04:08:43.029Z,1015.40
2018-06-22T04:09:43.013Z,1015.28
2018-06-22T04:10:42.961Z,1015.34
2018-06-22T04:11:42.923Z,1015.39
2018-06-22T04:12:42.888Z,1015.37
2018-06-22T04:13:42.853Z,1015.24
2018-06-22T04:14:42.819Z,1015.34
2018-06-22T04:15:42.778Z,1015.16
2018-06-22T04:16:42.758Z,1015.32
2018-06-22T04:17:42.711Z,1015.30
2018-06-22T04:18:42.674Z,1015.42
2018-06-22T04:19:42.667Z,1015.27
2018-06-22T04:20:42.623Z,1015.39
2018-06-22T04:21:42.568Z,1015.30
2018-06-22T04:22:42.542Z,1015.45
2018-06-22T04:23:42.496Z,1015.36
2018-06-22T04:24:42.462Z,1015.33
2018-06-22T04:25:42.429Z,1015.30
2018-06-22T04:26:42.389Z,1015.24
2018-06-22T04:27:42.357Z,1015.20
2018-06-22T04:28:42.319Z,1015.10
2018-06-22T04:29:42.284Z,1015.18
2018-06-22T04:30:42.251Z,1015.09
2018-06-22T04:31:42.243Z,1015.19
2018-06-22T04:32:42.179Z,1015.31
2018-06-22T04:33:42.145Z,1015.29
2018-06-22T04:34:42.109Z,1015.19
2018-06-22T04:35:42.068Z,1015.31
2018-06-22T04:36:42.041Z,1015.25
2018-06-22T04:37:42.012Z,1015.19
2018-06-22T04:38:42.033Z,1015.21
2018-06-22T04:39:41.947Z,1015.17
2018-06-22T04:40:41.896Z,1015.20
2018-06-22T04:41:41.869Z,1015.27
2018-06-22T04:42:41.830Z,1015.33
2018-06-22T04:43:41.796Z,1015.31
2018-06-22T04:44:41.759Z,1015.37
2018-06-22T04:45:41.724Z,1015.38
2018-06-22T04:46:41.688Z,1015.34
2018-06-22T04:47:41.694Z,1015.34
2018-06-22T04:48:41.618Z,1015.34
2018-06-22T04:49:41.585Z,1015.27
2018-06-22T04:50:41.550Z,1015.22
2018-06-22T04:51:41.518Z,1015.26
2018-06-22T04:52:41.480Z,1015.23
2018-06-22T04:53:41.448Z,1015.27
2018-06-22T04:54:41.411Z,1015.31
2018-06-22T04:55:41.391Z,1015.36
2018-06-22T04:56:41.340Z,1015.30
2018-06-22T04:57:41.299Z,1015.34
2018-06-22T04:58:41.945Z,1015.37
2018-06-22T04:59:41.236Z,1015.42
2018-06-22T05:00:41.217Z,1015.35
2018-06-22T05:01:41.164Z,1015.41
2018-06-22T05:02:41.127Z,1015.32
2018-06-22T05:03:41.106Z,1015.34
2018-06-22T05:04:41.064Z,1015.31
2018-06-22T05:05:41.027Z,1015.23
2018-06-22T05:06:41.012Z,1015.33
2018-06-22T05:07:40.958Z,1015.28
2018-06-22T05:08:40.923Z,1015.28
2018-06-22T05:09:40.890Z,1015.27
2018-06-22T05:10:40.888Z,1015.31
2018-06-22T05:11:40.819Z,1015.40
2018-06-22T05:12:40.784Z,1015.29
2018-06-22T05:13:40.752Z,1015.38
2018-06-22T05:14:40.719Z,1015.51
2018-06-22T05:15:40.742Z,1015.42
2018-06-22T05:16:40.645Z,1015.35
2018-06-22T05:17:40.612Z,1015.44
2018-06-22T05:18:40.607Z,1015.44
2018-06-22T05:19:40.540Z,1015.50
2018-06-22T05:20:40.506Z,1015.50
2018-06-22T05:21:40.474Z,1015.45
2018-06-22T05:22:40.458Z,1015.58
2018-06-22T05:23:40.405Z,1015.50
2018-06-22T05:24:40.369Z,1015.47
2018-06-22T05:25:40.332Z,1015.54
2018-06-22T05:26:40.300Z,1015.55
2018-06-22T05:27:40.264Z,1015.45
2018-06-22T05:28:40.242Z,1015.63
2018-06-22T05:29:40.194Z,1015.58
2018-06-22T05:30:40.165Z,1015.61
2018-06-22T05:31:40.126Z,1015.61
2018-06-22T05:32:40.091Z,1015.68
2018-06-22T05:33:40.058Z,1015.58
2018-06-22T05:34:40.025Z,1015.73
2018-06-22T05:35:39.985Z,1015.66
2018-06-22T05:36:39.953Z,1015.76
2018-06-22T05:37:39.919Z,1015.81
2018-06-22T05:38:39.886Z,1015.68
2018-06-22T05:39:39.846Z,1015.78
2018-06-22T05:40:39.816Z,1015.75
2018-06-22T05:41:39.782Z,1015.67
2018-06-22T05:42:39.748Z,1015.66
2018-06-22T05:43:39.714Z,1015.76
2018-06-22T05:44:39.678Z,1015.74
2018-06-22T05:45:39.649Z,1015.72
2018-06-22T05:46:39.611Z,1015.69
2018-06-22T05:47:39.580Z,1015.63
2018-06-22T05:48:39.541Z,1015.74
2018-06-22T05:49:39.503Z,1015.65
2018-06-22T05:50:39.507Z,1015.48
2018-06-22T05:51:39.439Z,1015.61
2018-06-22T05:52:39.406Z,1015.67
2018-06-22T05:53:39.391Z,1015.69
2018-06-22T05:54:39.333Z,1015.69
2018-06-22T05:55:39.299Z,1015.66
2018-06-22T05:56:39.274Z,1015.69
2018-06-22T05:57:39.250Z,1015.64
2018-06-22T05:58:39.218Z,1015.59
2018-06-22T05:59:39.163Z,1015.57
2018-06-22T06:00:39.136Z,1015.52
2018-06-22T06:01:39.099Z,1015.54
2018-06-22T06:02:39.064Z,1015.51
2018-06-22T06:03:39.109Z,1015.53
2018-06-22T06:04:38.998Z,1015.56
2018-06-22T06:05:38.961Z,1015.63
2018-06-22T06:06:38.935Z,1015.43
2018-06-22T06:07:38.915Z,1015.69
2018-06-22T06:08:38.864Z,1015.71
2018-06-22T06:09:38.823Z,1015.85
2018-06-22T06:10:38.795Z,1015.62
2018-06-22T06:11:38.761Z,1015.63
2018-06-22T06:12:38.758Z,1015.63
2018-06-22T06:13:38.694Z,1015.70
2018-06-22T06:14:38.654Z,1015.73
2018-06-22T06:15:38.621Z,1015.75
2018-06-22T06:16:38.590Z,1015.70
2018-06-22T06:17:38.559Z,1015.66
2018-06-22T06:18:38.523Z,1015.84
2018-06-22T06:19:38.489Z,1015.81
2018-06-22T06:20:38.486Z,1015.81
2018-06-22T06:21:38.423Z,1015.89
2018-06-22T06:22:38.391Z,1015.81
2018-06-22T06:23:38.357Z,1015.81
2018-06-22T06:24:38.318Z,1015.83
2018-06-22T06:25:38.289Z,1015.71
2018-06-22T06:26:38.260Z,1015.76
2018-06-22T06:27:38.221Z,1015.84
2018-06-22T06:28:38.191Z,1015.74
2018-06-22T06:29:38.149Z,1015.75
2018-06-22T06:30:38.121Z,1015.74
2018-06-22T06:31:38.092Z,1015.79
2018-06-22T06:32:38.055Z,1015.83
2018-06-22T06:33:38.021Z,1015.62
2018-06-22T06:34:37.993Z,1015.78
2018-06-22T06:35:37.972Z,1015.78
2018-06-22T06:36:37.924Z,1015.72
2018-06-22T06:37:37.892Z,1015.79
2018-06-22T06:38:37.858Z,1015.82
2018-06-22T06:39:37.821Z,1015.83
2018-06-22T06:40:37.819Z,1015.79
2018-06-22T06:41:37.757Z,1015.86
2018-06-22T06:42:37.718Z,1015.88
2018-06-22T06:43:37.688Z,1015.81
2018-06-22T06:44:37.660Z,1015.89
2018-06-22T06:45:37.624Z,1015.85
2018-06-22T06:46:37.590Z,1015.91
2018-06-22T06:47:37.561Z,1015.80
2018-06-22T06:48:37.522Z,1015.89
2018-06-22T06:49:37.593Z,1015.93
2018-06-22T06:50:37.465Z,1015.81
2018-06-22T06:51:37.423Z,1015.68
2018-06-22T06:52:37.389Z,1015.87
2018-06-22T06:53:37.402Z,1015.84
2018-06-22T06:54:37.328Z,1015.93
2018-06-22T06:55:37.295Z,1015.90
2018-06-22T06:56:37.258Z,1015.84
2018-06-22T06:57:37.228Z,1015.87
2018-06-22T06:58:37.192Z,1015.76
2018-06-22T06:59:37.165Z,1015.88
2018-06-22T07:00:37.124Z,1015.95
2018-06-22T07:01:37.096Z,1015.87
2018-06-22T07:02:37.161Z,1015.90
2018-06-22T07:03:37.028Z,1015.96
2018-06-22T07:04:36.994Z,1015.93
2018-06-22T07:05:36.960Z,1015.88
2018-06-22T07:06:36.929Z,1015.86
2018-06-22T07:07:36.893Z,1015.90
2018-06-22T07:08:36.864Z,1015.98
2018-06-22T07:09:36.827Z,1015.98
2018-06-22T07:12:08.867Z,1015.96
2018-06-22T07:13:08.804Z,1015.94
2018-06-22T07:14:08.814Z,1016.02
2018-06-22T07:15:09.356Z,1015.94
2018-06-22T07:16:08.705Z,1016.02
2018-06-22T07:17:08.726Z,1016.02
2018-06-22T07:18:08.642Z,1015.96
2018-06-22T07:19:08.606Z,1016.01
2018-06-22T07:20:08.570Z,1016.04
2018-06-22T07:21:08.538Z,1015.98
2018-06-22T07:22:08.507Z,1016.03
2018-06-22T07:23:08.473Z,1015.99
2018-06-22T07:24:08.444Z,1016.01
2018-06-22T07:25:08.406Z,1015.99
2018-06-22T07:26:08.373Z,1015.99
2018-06-22T07:27:08.342Z,1016.04
2018-06-22T07:28:08.310Z,1015.94
2018-06-22T07:29:08.272Z,1015.98
2018-06-22T07:30:08.241Z,1015.92
2018-06-22T07:31:08.207Z,1016.03
2018-06-22T07:32:08.172Z,1016.01
2018-06-22T07:33:08.157Z,1016.06
2018-06-22T07:34:08.110Z,1016.04
2018-06-22T07:35:08.077Z,1016.02
2018-06-22T07:36:08.047Z,1016.04
2018-06-22T07:37:08.013Z,1015.98
2018-06-22T07:38:07.975Z,1015.98
2018-06-22T07:39:07.945Z,1016.04
2018-06-22T07:40:07.910Z,1016.02
2018-06-22T07:41:07.880Z,1015.99
2018-06-22T07:42:07.862Z,1016.04
2018-06-22T07:43:07.814Z,1016.04
2018-06-22T07:44:07.781Z,1016.01
2018-06-22T07:45:07.746Z,1016.04
2018-06-22T07:46:07.717Z,1016.05
2018-06-22T07:47:07.687Z,1016.07
2018-06-22T07:48:07.662Z,1016.07
2018-06-22T07:49:07.620Z,1016.09
2018-06-22T07:50:07.586Z,1016.11
2018-06-22T07:51:07.554Z,1016.05
2018-06-22T07:52:07.523Z,1016.07
2018-06-22T07:53:07.490Z,1016.05
2018-06-22T07:54:07.457Z,1016.18
2018-06-22T07:55:07.429Z,1016.13
2018-06-22T07:56:07.415Z,1016.15
2018-06-22T07:57:07.436Z,1016.12
2018-06-22T07:58:07.365Z,1016.11
2018-06-22T07:59:07.331Z,1016.11
2018-06-22T08:00:07.332Z,1016.14
2018-06-22T08:01:07.231Z,1016.14
2018-06-22T08:02:07.195Z,1016.13
2018-06-22T08:03:07.165Z,1016.11
2018-06-22T08:04:07.128Z,1016.10
2018-06-22T08:05:07.098Z,1016.16
2018-06-22T08:06:07.066Z,1015.92
2018-06-22T08:07:07.037Z,1016.05
2018-06-22T08:08:07.004Z,1016.08
2018-06-22T08:09:06.962Z,1016.14
2018-06-22T08:10:06.933Z,1016.06
2018-06-22T08:11:06.901Z,1016.16
2018-06-22T08:12:06.894Z,1016.21
2018-06-22T08:13:06.834Z,1016.16
2018-06-22T08:14:06.801Z,1016.18
2018-06-22T08:15:06.769Z,1016.15
2018-06-22T08:16:06.737Z,1016.23
2018-06-22T08:17:06.703Z,1016.26
2018-06-22T08:18:06.669Z,1016.20
2018-06-22T08:19:06.636Z,1016.20
2018-06-22T08:20:06.607Z,1016.30
2018-06-22T08:21:06.572Z,1016.23
2018-06-22T08:22:06.537Z,1016.28
2018-06-22T08:23:06.526Z,1016.25
2018-06-22T08:24:06.473Z,1016.13
2018-06-22T08:25:06.440Z,1016.17
2018-06-22T08:26:06.407Z,1016.27
2018-06-22T08:27:06.372Z,1016.26
2018-06-22T08:28:06.336Z,1016.23
2018-06-22T08:29:06.330Z,1016.29
2018-06-22T08:30:06.274Z,1016.24
2018-06-22T08:31:06.242Z,1016.32
2018-06-22T08:32:06.210Z,1016.30
2018-06-22T08:33:06.179Z,1016.21
2018-06-22T08:34:06.173Z,1016.30
2018-06-22T08:35:06.111Z,1016.31
2018-06-22T08:36:06.079Z,1016.22
2018-06-22T08:37:06.046Z,1016.35
2018-06-22T08:38:06.038Z,1016.28
2018-06-22T08:39:05.984Z,1016.29
2018-06-22T08:40:05.949Z,1016.32
2018-06-22T08:41:05.927Z,1016.33
2018-06-22T08:42:05.892Z,1016.24
2018-06-22T08:43:05.854Z,1016.33
2018-06-22T08:44:05.821Z,1016.34
2018-06-22T08:45:05.795Z,1016.39
2018-06-22T08:46:05.754Z,1016.34
2018-06-22T08:47:05.727Z,1016.32
2018-06-22T08:48:05.713Z,1016.40
2018-06-22T08:49:05.667Z,1016.39
2018-06-22T08:50:05.628Z,1016.40
2018-06-22T08:51:05.601Z,1016.40
2018-06-22T08:52:05.568Z,1016.37
2018-06-22T08:53:05.539Z,1016.47
2018-06-22T08:54:05.506Z,1016.45
2018-06-22T08:55:05.479Z,1016.37
2018-06-22T08:56:05.443Z,1016.44
2018-06-22T08:57:05.411Z,1016.41
2018-06-22T08:58:05.376Z,1016.44
2018-06-22T08:59:05.351Z,1016.51
2018-06-22T09:00:05.318Z,1016.49
2018-06-22T09:01:05.285Z,1016.45
2018-06-22T09:02:05.250Z,1016.42
2018-06-22T09:03:05.218Z,1016.37
2018-06-22T09:04:05.188Z,1016.48
2018-06-22T09:05:05.159Z,1016.47
2018-06-22T09:06:05.128Z,1016.51
2018-06-22T09:07:05.096Z,1016.46
2018-06-22T09:08:05.106Z,1016.48
2018-06-22T09:09:05.035Z,1016.53
2018-06-22T09:10:05.002Z,1016.52
2018-06-22T09:11:04.975Z,1016.47
2018-06-22T09:12:04.941Z,1016.53
2018-06-22T09:13:04.911Z,1016.58
2018-06-22T09:14:04.878Z,1016.58
2018-06-22T09:15:04.870Z,1016.63
2018-06-22T09:16:04.819Z,1016.57
2018-06-22T09:17:04.785Z,1016.65
2018-06-22T09:18:04.776Z,1016.60
2018-06-22T09:19:04.726Z,1016.56
2018-06-22T09:20:04.714Z,1016.64
2018-06-22T09:21:04.666Z,1016.63
2018-06-22T09:22:04.638Z,1016.57
2018-06-22T09:23:04.619Z,1016.58
2018-06-22T09:24:04.586Z,1016.63
2018-06-22T09:25:04.543Z,1016.46
2018-06-22T09:26:04.514Z,1016.52
2018-06-22T09:27:04.484Z,1016.54
2018-06-22T09:28:04.446Z,1016.60
2018-06-22T09:29:04.419Z,1016.64
2018-06-22T09:30:04.391Z,1016.59
2018-06-22T09:31:04.378Z,1016.57
2018-06-22T09:32:04.331Z,1016.58
2018-06-22T09:33:04.301Z,1016.53
2018-06-22T09:34:04.273Z,1016.61
2018-06-22T09:35:04.244Z,1016.69
2018-06-22T09:36:04.207Z,1016.67
2018-06-22T09:37:04.179Z,1016.68
2018-06-22T09:38:04.153Z,1016.65
2018-06-22T09:39:04.120Z,1016.66
2018-06-22T09:40:04.122Z,1016.61
2018-06-22T09:41:04.063Z,1016.53
2018-06-22T09:42:04.033Z,1016.66
2018-06-22T09:43:04.004Z,1016.60
2018-06-22T09:44:03.975Z,1016.61
2018-06-22T09:45:04.004Z,1016.55
2018-06-22T09:46:03.912Z,1016.55
2018-06-22T09:47:03.882Z,1016.66
2018-06-22T09:48:03.850Z,1016.63
2018-06-22T09:49:03.831Z,1016.68
2018-06-22T09:50:03.791Z,1016.70
2018-06-22T09:51:03.786Z,1016.62
2018-06-22T09:52:03.728Z,1016.71
2018-06-22T09:53:03.711Z,1016.68
2018-06-22T09:54:03.671Z,1016.70
2018-06-22T09:55:03.694Z,1016.63
2018-06-22T09:56:03.620Z,1016.69
2018-06-22T09:57:03.583Z,1016.42
2018-06-22T09:58:03.549Z,1016.77
2018-06-22T09:59:03.519Z,1016.63
2018-06-22T10:00:03.500Z,1016.68
2018-06-22T10:01:03.459Z,1016.67
2018-06-22T10:02:03.436Z,1016.66
2018-06-22T10:03:03.405Z,1016.73
2018-06-22T10:04:03.376Z,1016.68
2018-06-22T10:05:03.346Z,1016.67
2018-06-22T10:06:03.312Z,1016.54
2018-06-22T10:07:03.285Z,1016.60
2018-06-22T10:08:03.252Z,1016.68
2018-06-22T10:09:03.232Z,1016.77
2018-06-22T10:10:03.207Z,1016.65
2018-06-22T10:11:03.161Z,1016.71
2018-06-22T10:12:03.133Z,1016.72
2018-06-22T10:13:03.101Z,1016.67
2018-06-22T10:14:03.067Z,1016.75
2018-06-22T10:15:03.040Z,1016.76
2018-06-22T10:16:03.008Z,1016.69
2018-06-22T10:17:02.978Z,1016.73
2018-06-22T10:18:02.959Z,1016.69
2018-06-22T10:19:02.938Z,1016.76
2018-06-22T10:20:02.885Z,1016.75
2018-06-22T10:21:02.851Z,1016.77
2018-06-22T10:22:02.824Z,1016.77
2018-06-22T10:23:02.794Z,1016.60
2018-06-22T10:24:02.774Z,1016.71
2018-06-22T10:25:02.736Z,1016.72
2018-06-22T10:26:02.695Z,1016.74
2018-06-22T10:27:02.678Z,1016.73
2018-06-22T10:28:02.637Z,1016.65
2018-06-22T10:29:02.623Z,1016.77
2018-06-22T10:30:02.579Z,1016.70
2018-06-22T10:31:02.548Z,1016.70
2018-06-22T10:32:02.517Z,1016.68
2018-06-22T10:33:02.485Z,1016.66
2018-06-22T10:34:02.524Z,1016.62
2018-06-22T10:35:02.424Z,1016.59
2018-06-22T10:36:02.395Z,1016.60
2018-06-22T10:37:02.374Z,1016.63
2018-06-22T10:38:02.333Z,1016.72
2018-06-22T10:39:02.310Z,1016.71
2018-06-22T10:40:02.272Z,1016.71
2018-06-22T10:41:02.242Z,1016.74
2018-06-22T10:42:02.217Z,1016.77
2018-06-22T10:43:02.183Z,1016.68
2018-06-22T10:44:02.152Z,1016.77
2018-06-22T10:45:02.121Z,1016.76
2018-06-22T10:46:02.124Z,1016.83
2018-06-22T10:47:02.063Z,1016.71
2018-06-22T10:48:02.049Z,1016.79
2018-06-22T10:49:02.011Z,1016.72
2018-06-22T10:50:01.981Z,1016.74
2018-06-22T10:51:01.961Z,1016.79
2018-06-22T10:52:01.914Z,1016.84
2018-06-22T10:53:01.878Z,1016.73
2018-06-22T10:54:01.872Z,1016.77
2018-06-22T10:55:01.828Z,1016.79
2018-06-22T10:56:01.800Z,1016.77
2018-06-22T10:57:01.767Z,1016.79
2018-06-22T10:58:01.761Z,1016.82
2018-06-22T10:59:01.715Z,1016.87
2018-06-22T11:00:01.750Z,1016.87
2018-06-22T11:01:01.660Z,1016.91
2018-06-22T11:02:01.629Z,1016.81
2018-06-22T11:03:01.604Z,1016.78
2018-06-22T11:04:01.583Z,1016.73
2018-06-22T11:05:02.415Z,1016.74
2018-06-22T11:06:01.524Z,1016.75
2018-06-22T11:07:01.499Z,1016.74
2018-06-22T11:08:01.471Z,1016.79
2018-06-22T11:09:01.461Z,1016.68
2018-06-22T11:10:01.424Z,1016.85
2018-06-22T11:11:01.392Z,1016.75
2018-06-22T11:12:01.379Z,1016.69
2018-06-22T11:13:01.350Z,1016.69
2018-06-22T11:14:01.378Z,1016.76
2018-06-22T11:15:01.305Z,1016.74
2018-06-22T11:16:01.256Z,1016.72
2018-06-22T11:17:01.302Z,1016.73
2018-06-22T11:18:01.208Z,1016.67
2018-06-22T11:19:01.172Z,1016.77
2018-06-22T11:20:01.143Z,1016.75
2018-06-22T11:21:01.111Z,1016.75
2018-06-22T11:22:01.084Z,1016.78
2018-06-22T11:23:01.054Z,1016.67
2018-06-22T11:24:01.026Z,1016.72
2018-06-22T11:25:00.998Z,1016.69
2018-06-22T11:26:00.986Z,1016.69
2018-06-22T11:27:00.939Z,1016.63
2018-06-22T11:28:00.910Z,1016.61
2018-06-22T11:29:00.879Z,1016.67
2018-06-22T11:30:00.849Z,1016.75
2018-06-22T11:31:00.822Z,1016.76
2018-06-22T11:32:00.792Z,1016.82
2018-06-22T11:33:00.763Z,1016.70
2018-06-22T11:34:00.732Z,1016.63
2018-06-22T11:35:00.739Z,1016.67
2018-06-22T11:36:00.690Z,1016.68
2018-06-22T11:37:00.645Z,1016.66
2018-06-22T11:38:01.431Z,1016.60
2018-06-22T11:39:00.585Z,1016.70
2018-06-22T11:40:00.558Z,1016.71
2018-06-22T11:41:00.526Z,1016.67
2018-06-22T11:42:00.500Z,1016.66
2018-06-22T11:43:00.471Z,1016.55
2018-06-22T11:44:00.439Z,1016.62
2018-06-22T11:45:00.410Z,1016.72
2018-06-22T11:46:00.381Z,1016.72
2018-06-22T11:47:00.349Z,1016.75
2018-06-22T11:48:00.323Z,1016.74
2018-06-22T11:49:00.309Z,1016.81
2018-06-22T11:50:00.260Z,1016.96
2018-06-22T11:51:00.288Z,1016.91
2018-06-22T11:52:00.200Z,1016.71
2018-06-22T11:53:00.173Z,1016.77
2018-06-22T11:54:00.142Z,1016.69
2018-06-22T11:55:00.117Z,1016.80
2018-06-22T11:56:00.085Z,1016.93
2018-06-22T11:57:00.095Z,1017.04
2018-06-22T11:58:00.028Z,1017.08
2018-06-22T11:59:00.029Z,1016.82
2018-06-22T11:59:59.969Z,1016.99
2018-06-22T12:00:59.938Z,1016.98
2018-06-22T12:01:59.912Z,1016.83
2018-06-22T12:02:59.880Z,1016.87
2018-06-22T12:03:59.855Z,1016.85
2018-06-22T12:04:59.831Z,1016.94
2018-06-22T12:05:59.799Z,1016.90
2018-06-22T12:06:59.771Z,1017.04